createdAt,value
2023-03-20T00:00:19.193Z,4.70
2023-03-20T00:01:51.912Z,4.43
2023-03-20T00:03:24.930Z,4.45
2023-03-20T00:04:57.721Z,4.32
2023-03-20T00:06:30.485Z,4.37
2023-03-20T00:08:03.198Z,5.03
2023-03-20T00:09:35.463Z,4.73
2023-03-20T00:11:21.333Z,4.88
2023-03-20T00:12:57.286Z,5.03
2023-03-20T00:14:30.210Z,4.80
2023-03-20T00:16:03.071Z,4.87
2023-03-20T00:17:34.874Z,5.03
2023-03-20T00:19:14.206Z,5.67
2023-03-20T00:20:47.122Z,5.15
2023-03-20T00:22:19.943Z,5.07
2023-03-20T00:23:52.664Z,5.40
2023-03-20T00:25:27.052Z,5.80
2023-03-20T00:26:59.909Z,5.53
2023-03-20T00:28:40.719Z,5.80
2023-03-20T00:30:29.357Z,5.40
2023-03-20T00:32:02.072Z,5.40
2023-03-20T00:33:34.923Z,5.35
2023-03-20T00:35:21.102Z,5.50
2023-03-20T00:36:54.828Z,5.65
2023-03-20T00:38:26.630Z,6.30
2023-03-20T00:39:59.335Z,6.20
2023-03-20T00:41:36.616Z,5.60
2023-03-20T00:43:12.811Z,6.35
2023-03-20T00:44:53.771Z,6.38
2023-03-20T00:46:27.128Z,6.05
2023-03-20T00:47:59.314Z,6.13
2023-03-20T00:49:34.866Z,6.57
2023-03-20T00:51:08.273Z,6.28
2023-03-20T00:52:40.948Z,6.13
2023-03-20T00:54:14.794Z,6.40
2023-03-20T00:55:47.506Z,5.93
2023-03-20T00:57:24.038Z,6.07
2023-03-20T00:58:56.795Z,6.37
2023-03-20T01:00:39.559Z,6.30
2023-03-20T01:02:11.744Z,6.35
2023-03-20T01:03:44.949Z,6.10
2023-03-20T01:05:17.802Z,6.43
2023-03-20T01:06:50.798Z,7.00
2023-03-20T01:08:25.485Z,6.55
2023-03-20T01:09:58.212Z,6.50
2023-03-20T01:11:31.306Z,6.60
2023-03-20T01:13:03.228Z,6.15
2023-03-20T01:14:36.115Z,6.33
2023-03-20T01:16:21.567Z,6.45
2023-03-20T01:17:54.318Z,6.47
2023-03-20T01:19:27.251Z,6.65
2023-03-20T01:20:59.958Z,7.10
2023-03-20T01:22:31.724Z,6.90
2023-03-20T01:24:04.606Z,6.45
2023-03-20T01:25:38.112Z,6.75
2023-03-20T01:27:14.209Z,7.03
2023-03-20T01:28:47.477Z,6.70
2023-03-20T01:30:23.303Z,6.80
2023-03-20T01:31:56.561Z,7.30
2023-03-20T01:33:30.810Z,7.45
2023-03-20T01:35:02.654Z,7.13
2023-03-20T01:36:35.350Z,7.75
2023-03-20T01:38:13.529Z,7.53
2023-03-20T01:39:46.426Z,7.55
2023-03-20T01:41:19.608Z,7.90
2023-03-20T01:42:53.732Z,8.80
2023-03-20T01:44:29.811Z,7.93
2023-03-20T01:46:04.783Z,7.93
2023-03-20T01:47:38.842Z,7.87
2023-03-20T01:49:45.556Z,8.05
2023-03-20T01:51:18.648Z,8.18
2023-03-20T01:52:54.470Z,8.00
2023-03-20T01:54:30.810Z,8.17
2023-03-20T01:56:03.574Z,8.43
2023-03-20T01:57:35.496Z,8.15
2023-03-20T01:59:14.314Z,8.13
2023-03-20T02:00:48.937Z,8.40
2023-03-20T02:02:24.608Z,8.43
2023-03-20T02:03:58.726Z,8.68
2023-03-20T02:05:32.262Z,8.68
2023-03-20T02:07:05.245Z,8.10
2023-03-20T02:08:42.844Z,8.23
2023-03-20T02:10:16.309Z,8.57
2023-03-20T02:11:49.968Z,8.20
2023-03-20T02:13:23.641Z,8.37
2023-03-20T02:14:56.091Z,7.67
2023-03-20T02:16:28.901Z,8.45
2023-03-20T02:18:00.720Z,8.20
2023-03-20T02:19:47.805Z,8.35
2023-03-20T02:22:00.385Z,8.45
2023-03-20T02:24:05.532Z,8.60
2023-03-20T02:26:03.135Z,8.70
2023-03-20T02:27:43.262Z,8.43
2023-03-20T02:29:57.960Z,8.63
2023-03-20T02:32:00.861Z,7.88
2023-03-20T02:34:22.378Z,8.15
2023-03-20T02:36:27.199Z,7.70
2023-03-20T02:38:32.472Z,9.57
2023-03-20T02:40:16.098Z,8.10
2023-03-20T02:41:57.297Z,8.65
2023-03-20T02:43:42.160Z,8.80
2023-03-20T02:45:21.607Z,9.23
2023-03-20T02:47:01.138Z,9.00
2023-03-20T02:48:42.880Z,9.73
2023-03-20T02:50:20.213Z,9.17
2023-03-20T02:51:59.811Z,9.15
2023-03-20T02:53:38.187Z,7.82
2023-03-20T02:55:19.253Z,8.57
2023-03-20T02:57:01.772Z,9.15
2023-03-20T02:58:39.000Z,8.77
2023-03-20T03:00:16.816Z,9.70
2023-03-20T03:01:54.221Z,8.45
2023-03-20T03:03:34.232Z,9.05
2023-03-20T03:05:16.313Z,10.02
2023-03-20T03:06:52.566Z,8.75
2023-03-20T03:08:29.790Z,9.65
2023-03-20T03:10:06.780Z,9.27
2023-03-20T03:11:45.953Z,9.48
2023-03-20T03:13:23.015Z,9.50
2023-03-20T03:14:58.238Z,9.00
2023-03-20T03:16:34.762Z,9.18
2023-03-20T03:18:11.437Z,9.20
2023-03-20T03:19:48.002Z,8.73
2023-03-20T03:21:22.351Z,9.32
2023-03-20T03:22:55.074Z,9.45
2023-03-20T03:24:40.747Z,9.27
2023-03-20T03:26:18.770Z,9.35
2023-03-20T03:28:02.755Z,9.20
2023-03-20T03:29:40.563Z,9.80
2023-03-20T03:31:17.465Z,9.17
2023-03-20T03:32:52.370Z,9.30
2023-03-20T03:34:25.318Z,9.90
2023-03-20T03:36:04.479Z,9.20
2023-03-20T03:37:43.544Z,11.10
2023-03-20T03:39:25.850Z,10.20
2023-03-20T03:41:15.508Z,9.63
2023-03-20T03:42:57.780Z,10.60
2023-03-20T03:44:36.281Z,10.00
2023-03-20T03:46:12.568Z,9.52
2023-03-20T03:47:52.089Z,9.73
2023-03-20T03:49:28.957Z,10.73
2023-03-20T03:51:06.387Z,10.52
2023-03-20T03:52:41.123Z,11.40
2023-03-20T03:54:16.658Z,11.15
2023-03-20T03:55:52.216Z,11.30
2023-03-20T03:57:29.740Z,11.18
2023-03-20T03:59:08.707Z,11.70
2023-03-20T04:00:43.415Z,10.10
2023-03-20T04:02:19.110Z,10.65
2023-03-20T04:03:56.186Z,10.52
2023-03-20T04:05:31.442Z,10.68
2023-03-20T04:07:04.397Z,10.20
2023-03-20T04:08:37.198Z,10.18
2023-03-20T04:10:10.090Z,10.13
2023-03-20T04:11:42.794Z,10.60
2023-03-20T04:13:16.365Z,11.63
2023-03-20T04:14:50.370Z,10.98
2023-03-20T04:16:24.898Z,11.43
2023-03-20T04:17:57.729Z,10.50
2023-03-20T04:19:30.526Z,11.13
2023-03-20T04:21:03.247Z,10.77
2023-03-20T04:22:36.272Z,11.13
2023-03-20T04:24:09.247Z,10.77
2023-03-20T04:25:42.082Z,11.32
2023-03-20T04:27:14.871Z,11.20
2023-03-20T04:28:47.568Z,10.27
2023-03-20T04:30:21.907Z,11.70
2023-03-20T04:31:54.703Z,12.23
2023-03-20T04:33:28.326Z,11.40
2023-03-20T04:35:01.012Z,12.00
2023-03-20T04:36:33.717Z,13.30
2023-03-20T04:38:07.137Z,11.60
2023-03-20T04:39:42.298Z,11.52
2023-03-20T04:41:15.391Z,11.40
2023-03-20T04:42:48.237Z,11.33
2023-03-20T04:44:20.962Z,11.20
2023-03-20T04:45:55.195Z,11.60
2023-03-20T04:47:26.927Z,11.47
2023-03-20T04:48:59.611Z,12.90
2023-03-20T04:50:31.482Z,12.30
2023-03-20T04:52:04.299Z,12.43
2023-03-20T04:53:36.642Z,11.80
2023-03-20T04:55:09.647Z,12.82
2023-03-20T04:56:42.326Z,13.82
2023-03-20T04:58:15.198Z,13.82
2023-03-20T04:59:47.876Z,13.63
2023-03-20T05:01:23.201Z,13.75
2023-03-20T05:02:55.945Z,15.60
2023-03-20T05:04:28.815Z,14.15
2023-03-20T05:06:00.725Z,15.68
2023-03-20T05:07:34.060Z,16.63
2023-03-20T05:09:07.022Z,18.33
2023-03-20T05:10:39.742Z,19.20
2023-03-20T05:12:12.527Z,19.10
2023-03-20T05:13:45.227Z,19.63
2023-03-20T05:15:18.056Z,20.77
2023-03-20T05:16:52.294Z,21.67
2023-03-20T05:18:25.159Z,19.80
2023-03-20T05:19:58.190Z,21.27
2023-03-20T05:21:29.990Z,20.88
2023-03-20T05:23:05.814Z,21.85
2023-03-20T05:24:38.946Z,22.30
2023-03-20T05:26:11.697Z,22.15
2023-03-20T05:27:45.634Z,22.52
2023-03-20T05:29:18.339Z,23.27
2023-03-20T05:30:51.060Z,22.63
2023-03-20T05:32:25.384Z,23.00
2023-03-20T05:33:58.213Z,23.13
2023-03-20T05:35:29.933Z,23.63
2023-03-20T05:37:02.852Z,25.13
2023-03-20T05:38:35.572Z,23.47
2023-03-20T05:40:11.623Z,24.45
2023-03-20T05:41:45.940Z,22.53
2023-03-20T05:43:18.739Z,22.87
2023-03-20T05:44:50.526Z,21.67
2023-03-20T05:46:23.809Z,20.58
2023-03-20T05:47:57.846Z,22.20
2023-03-20T05:49:30.730Z,22.00
2023-03-20T05:51:03.608Z,20.95
2023-03-20T05:52:36.342Z,21.30
2023-03-20T05:54:09.059Z,20.50
2023-03-20T05:55:44.511Z,21.92
2023-03-20T05:57:17.581Z,21.67
2023-03-20T05:58:50.295Z,22.40
2023-03-20T06:00:24.346Z,23.13
2023-03-20T06:01:57.032Z,23.97
2023-03-20T06:03:31.137Z,25.27
2023-03-20T06:05:04.440Z,24.73
2023-03-20T06:06:38.167Z,24.60
2023-03-20T06:08:10.903Z,25.52
2023-03-20T06:09:43.594Z,25.77
2023-03-20T06:11:16.309Z,27.20
2023-03-20T06:12:49.030Z,27.73
2023-03-20T06:14:21.737Z,28.85
2023-03-20T06:15:54.465Z,29.57
2023-03-20T06:17:27.174Z,28.53
2023-03-20T06:19:01.256Z,28.90
2023-03-20T06:20:34.088Z,31.63
2023-03-20T06:22:07.078Z,30.13
2023-03-20T06:23:39.835Z,30.80
2023-03-20T06:25:12.518Z,29.58
2023-03-20T06:26:45.409Z,30.00
2023-03-20T06:28:18.108Z,30.52
2023-03-20T06:29:50.911Z,29.50
2023-03-20T06:31:23.728Z,31.00
2023-03-20T06:32:56.447Z,30.73
2023-03-20T06:34:31.494Z,31.03
2023-03-20T06:36:04.681Z,31.17
2023-03-20T06:37:37.786Z,30.07
2023-03-20T06:39:10.778Z,32.17
2023-03-20T06:40:45.114Z,30.27
2023-03-20T06:42:18.416Z,32.33
2023-03-20T06:43:51.108Z,30.77
2023-03-20T06:45:23.811Z,32.03
2023-03-20T06:46:56.093Z,31.97
2023-03-20T06:48:28.927Z,32.00
2023-03-20T06:50:03.145Z,31.43
2023-03-20T06:51:35.840Z,32.60
2023-03-20T06:53:08.720Z,34.40
2023-03-20T06:54:42.061Z,33.57
2023-03-20T06:56:14.780Z,33.30
2023-03-20T06:57:47.495Z,34.38
2023-03-20T06:59:20.201Z,34.55
2023-03-20T07:00:54.552Z,32.70
2023-03-20T07:02:27.880Z,34.67
2023-03-20T07:04:01.044Z,34.73
2023-03-20T07:05:35.595Z,34.43
2023-03-20T07:07:08.522Z,33.55
2023-03-20T07:08:41.381Z,35.90
2023-03-20T07:10:14.098Z,34.77
2023-03-20T07:11:46.823Z,33.95
2023-03-20T07:13:20.593Z,36.10
2023-03-20T07:14:53.302Z,35.90
2023-03-20T07:16:25.997Z,35.88
2023-03-20T07:17:58.764Z,33.83
2023-03-20T07:19:31.491Z,34.75
2023-03-20T07:21:07.849Z,35.00
2023-03-20T07:22:42.418Z,35.20
2023-03-20T07:24:15.264Z,34.33
2023-03-20T07:25:48.506Z,33.58
2023-03-20T07:27:22.220Z,34.35
2023-03-20T07:28:55.200Z,33.33
2023-03-20T07:30:28.071Z,34.20
2023-03-20T07:32:02.457Z,34.47
2023-03-20T07:33:35.151Z,33.27
2023-03-20T07:35:09.182Z,34.70
2023-03-20T07:36:43.533Z,33.73
2023-03-20T07:38:16.252Z,34.38
2023-03-20T07:39:49.132Z,33.65
2023-03-20T07:41:21.820Z,34.63
2023-03-20T07:42:54.567Z,34.55
2023-03-20T07:44:27.274Z,34.67
2023-03-20T07:46:02.565Z,34.07
2023-03-20T07:47:35.362Z,35.43
2023-03-20T07:49:08.129Z,33.07
2023-03-20T07:50:40.826Z,34.30
2023-03-20T07:52:15.040Z,34.73
2023-03-20T07:53:47.726Z,33.60
2023-03-20T07:55:20.455Z,33.53
2023-03-20T07:56:53.799Z,35.72
2023-03-20T07:58:26.551Z,34.47
2023-03-20T07:59:59.240Z,32.57
2023-03-20T08:01:31.933Z,31.97
2023-03-20T08:03:04.821Z,32.37
2023-03-20T08:04:37.553Z,32.70
2023-03-20T08:06:11.187Z,31.30
2023-03-20T08:07:45.949Z,31.13
2023-03-20T08:09:19.301Z,30.33
2023-03-20T08:10:51.992Z,30.73
2023-03-20T08:12:24.757Z,28.80
2023-03-20T08:13:57.432Z,29.45
2023-03-20T08:15:30.154Z,29.70
2023-03-20T08:17:14.263Z,28.43
2023-03-20T08:18:47.467Z,29.83
2023-03-20T08:20:21.634Z,29.03
2023-03-20T08:21:54.392Z,27.30
2023-03-20T08:23:28.980Z,27.95
2023-03-20T08:25:01.784Z,27.20
2023-03-20T08:26:34.492Z,26.20
2023-03-20T08:28:07.308Z,27.40
2023-03-20T08:29:39.993Z,27.07
2023-03-20T08:31:12.714Z,27.30
2023-03-20T08:32:45.477Z,26.80
2023-03-20T08:34:18.256Z,27.30
2023-03-20T08:35:57.704Z,26.90
2023-03-20T08:37:30.555Z,27.23
2023-03-20T08:39:04.700Z,28.63
2023-03-20T08:40:37.427Z,28.70
2023-03-20T08:42:10.155Z,26.90
2023-03-20T08:43:42.891Z,27.13
2023-03-20T08:45:16.894Z,27.35
2023-03-20T08:46:49.662Z,29.33
2023-03-20T08:48:22.631Z,27.07
2023-03-20T08:49:55.835Z,28.13
2023-03-20T08:51:28.634Z,27.60
2023-03-20T08:53:01.319Z,26.67
2023-03-20T08:54:35.539Z,27.40
2023-03-20T08:56:09.830Z,24.70
2023-03-20T08:57:42.910Z,24.47
2023-03-20T08:59:16.280Z,24.37
2023-03-20T09:00:49.079Z,23.27
2023-03-20T09:02:21.948Z,24.90
2023-03-20T09:03:54.725Z,24.00
2023-03-20T09:05:27.467Z,25.30
2023-03-20T09:07:01.206Z,25.27
2023-03-20T09:08:34.148Z,25.93
2023-03-20T09:10:09.813Z,23.63
2023-03-20T09:11:42.836Z,22.77
2023-03-20T09:13:26.589Z,21.40
2023-03-20T09:15:01.184Z,20.30
2023-03-20T09:16:34.099Z,17.13
2023-03-20T09:18:06.975Z,15.73
2023-03-20T09:19:42.556Z,15.50
2023-03-20T09:21:15.479Z,16.80
2023-03-20T09:22:48.263Z,17.50
2023-03-20T09:24:21.018Z,17.20
2023-03-20T09:25:55.078Z,16.80
2023-03-20T09:27:27.896Z,16.17
2023-03-20T09:29:00.859Z,14.33
2023-03-20T09:30:33.896Z,14.63
2023-03-20T09:32:07.224Z,13.57
2023-03-20T09:33:40.032Z,14.30
2023-03-20T09:35:12.775Z,13.10
2023-03-20T09:36:45.562Z,13.77
2023-03-20T09:38:18.628Z,11.83
2023-03-20T09:39:51.369Z,10.97
2023-03-20T09:41:28.334Z,11.17
2023-03-20T09:43:11.817Z,10.10
2023-03-20T09:44:55.631Z,9.30
2023-03-20T09:46:40.891Z,9.43
2023-03-20T09:48:20.258Z,9.80
2023-03-20T09:50:05.862Z,9.60
2023-03-20T09:51:44.835Z,11.17
2023-03-20T09:53:21.669Z,15.77
2023-03-20T09:54:57.353Z,15.67
2023-03-20T09:56:32.227Z,14.23
2023-03-20T09:58:12.903Z,14.27
2023-03-20T09:59:46.025Z,14.33
2023-03-20T10:01:20.818Z,14.20
2023-03-20T10:02:57.484Z,13.63
2023-03-20T10:04:31.107Z,15.40
2023-03-20T10:06:06.899Z,14.53
2023-03-20T10:07:39.651Z,13.53
2023-03-20T10:09:17.772Z,13.23
2023-03-20T10:10:53.046Z,12.70
2023-03-20T10:12:44.642Z,11.27
2023-03-20T10:14:28.883Z,9.47
2023-03-20T10:16:09.011Z,9.00
2023-03-20T10:17:51.720Z,7.90
2023-03-20T10:19:28.740Z,8.40
2023-03-20T10:21:05.700Z,7.93
2023-03-20T10:22:43.439Z,7.47
2023-03-20T10:24:21.619Z,7.17
2023-03-20T10:25:59.552Z,7.00
2023-03-20T10:27:35.996Z,6.80
2023-03-20T10:29:20.994Z,7.20
2023-03-20T10:31:06.259Z,7.23
2023-03-20T10:32:45.911Z,7.77
2023-03-20T10:34:29.651Z,7.20
2023-03-20T10:36:14.647Z,7.37
2023-03-20T10:38:00.242Z,7.40
2023-03-20T10:39:50.083Z,6.50
2023-03-20T10:41:28.529Z,6.60
2023-03-20T10:43:05.237Z,6.37
2023-03-20T10:44:41.535Z,7.47
2023-03-20T10:46:17.981Z,7.10
2023-03-20T10:47:53.345Z,6.57
2023-03-20T10:49:33.561Z,7.37
2023-03-20T10:51:11.250Z,7.60
2023-03-20T10:52:45.043Z,6.87
2023-03-20T10:54:25.357Z,7.60
2023-03-20T10:56:01.359Z,7.57
2023-03-20T10:57:41.901Z,6.57
2023-03-20T10:59:23.088Z,6.20
2023-03-20T11:00:57.467Z,7.17
2023-03-20T11:02:32.088Z,6.57
2023-03-20T11:04:04.958Z,6.33
2023-03-20T11:05:38.377Z,6.57
2023-03-20T11:07:18.529Z,7.10
2023-03-20T11:08:53.095Z,6.20
2023-03-20T11:10:28.237Z,6.53
2023-03-20T11:12:03.661Z,7.10
2023-03-20T11:13:39.397Z,7.47
2023-03-20T11:15:25.329Z,6.93
2023-03-20T11:17:03.834Z,6.53
2023-03-20T11:18:36.719Z,6.27
2023-03-20T11:20:14.829Z,5.97
2023-03-20T11:21:50.701Z,6.13
2023-03-20T11:23:27.601Z,5.00
2023-03-20T11:25:02.781Z,4.70
2023-03-20T11:26:38.436Z,4.80
2023-03-20T11:28:36.163Z,3.80
2023-03-20T11:30:17.852Z,3.60
2023-03-20T11:31:52.378Z,2.80
2023-03-20T11:33:27.763Z,3.63
2023-03-20T11:35:12.956Z,3.10
2023-03-20T11:37:08.570Z,3.30
2023-03-20T11:38:46.543Z,3.63
2023-03-20T11:40:25.254Z,3.70
2023-03-20T11:42:00.379Z,3.60
2023-03-20T11:43:38.878Z,3.53
2023-03-20T11:45:17.925Z,3.63
2023-03-20T11:46:58.324Z,3.43
2023-03-20T11:48:38.910Z,3.60
2023-03-20T11:50:26.908Z,3.20
2023-03-20T11:52:02.514Z,3.23
2023-03-20T11:53:39.387Z,3.43
2023-03-20T11:55:25.720Z,3.27
2023-03-20T11:56:59.750Z,3.63
2023-03-20T11:58:33.494Z,3.17
2023-03-20T12:00:17.512Z,3.97
2023-03-20T12:01:52.486Z,3.53
2023-03-20T12:03:42.092Z,3.87
2023-03-20T12:05:36.767Z,3.43
2023-03-20T12:07:14.985Z,3.50
2023-03-20T12:08:55.349Z,3.27
2023-03-20T12:10:33.328Z,4.90
2023-03-20T12:12:14.504Z,3.00
2023-03-20T12:13:49.446Z,3.10
2023-03-20T12:15:26.492Z,2.77
2023-03-20T12:17:15.176Z,2.73
2023-03-20T12:18:53.726Z,2.50
2023-03-20T12:20:33.356Z,2.83
2023-03-20T12:22:17.588Z,2.47
2023-03-20T12:23:53.968Z,2.60
2023-03-20T12:25:28.685Z,2.57
2023-03-20T12:27:15.406Z,2.97
2023-03-20T12:28:55.634Z,2.30
2023-03-20T12:30:35.485Z,2.77
2023-03-20T12:32:16.427Z,2.70
2023-03-20T12:33:53.645Z,2.40
2023-03-20T12:35:29.426Z,2.47
2023-03-20T12:37:02.361Z,2.43
2023-03-20T12:38:35.269Z,2.60
2023-03-20T12:40:17.184Z,2.60
2023-03-20T12:41:59.589Z,2.90
2023-03-20T12:43:39.045Z,3.23
2023-03-20T12:45:13.650Z,3.10
2023-03-20T12:46:52.520Z,3.03
2023-03-20T12:48:49.681Z,2.60
2023-03-20T12:50:31.619Z,2.60
2023-03-20T12:52:13.778Z,2.67
2023-03-20T12:53:56.056Z,2.03
2023-03-20T12:55:39.328Z,2.50
2023-03-20T12:57:22.107Z,2.70
2023-03-20T12:59:00.411Z,2.53
2023-03-20T13:00:37.062Z,3.97
2023-03-20T13:02:25.287Z,4.00
2023-03-20T13:04:20.240Z,4.40
2023-03-20T13:06:04.248Z,4.07
2023-03-20T13:07:54.342Z,4.20
2023-03-20T13:09:52.017Z,3.97
2023-03-20T13:11:31.894Z,3.03
2023-03-20T13:13:17.032Z,2.87
2023-03-20T13:14:57.377Z,3.00
2023-03-20T13:16:41.041Z,3.07
2023-03-20T13:18:21.888Z,2.70
2023-03-20T13:20:06.962Z,3.00
2023-03-20T13:21:46.290Z,2.90
2023-03-20T13:23:24.264Z,3.67
2023-03-20T13:25:05.904Z,4.30
2023-03-20T13:26:43.099Z,4.10
2023-03-20T13:28:23.575Z,4.43
2023-03-20T13:30:02.696Z,4.13
2023-03-20T13:31:47.740Z,4.30
2023-03-20T13:33:35.998Z,4.80
2023-03-20T13:35:36.769Z,4.00
2023-03-20T13:37:23.985Z,4.30
2023-03-20T13:39:04.682Z,4.07
2023-03-20T13:40:43.461Z,4.37
2023-03-20T13:42:20.920Z,4.60
2023-03-20T13:43:58.647Z,4.70
2023-03-20T13:45:35.965Z,5.07
2023-03-20T13:47:14.495Z,5.00
2023-03-20T13:48:47.909Z,4.97
2023-03-20T13:50:34.975Z,5.07
2023-03-20T13:52:14.701Z,4.33
2023-03-20T13:53:58.921Z,4.60
2023-03-20T13:55:42.265Z,4.60
2023-03-20T13:57:27.172Z,4.67
2023-03-20T13:59:28.450Z,4.77
2023-03-20T14:01:09.724Z,5.00
2023-03-20T14:03:03.066Z,4.13
2023-03-20T14:04:36.693Z,4.80
2023-03-20T14:06:43.439Z,4.83
2023-03-20T14:08:33.089Z,4.57
2023-03-20T14:10:38.047Z,4.50
2023-03-20T14:12:13.216Z,4.60
2023-03-20T14:13:48.770Z,4.17
2023-03-20T14:15:22.243Z,3.90
2023-03-20T14:17:20.941Z,4.40
2023-03-20T14:19:07.900Z,4.50
2023-03-20T14:20:42.780Z,4.30
2023-03-20T14:22:19.275Z,4.00
2023-03-20T14:24:03.008Z,4.20
2023-03-20T14:25:40.424Z,3.80
2023-03-20T14:27:29.835Z,4.17
2023-03-20T14:29:31.526Z,3.53
2023-03-20T14:31:14.890Z,3.73
2023-03-20T14:33:01.725Z,3.60
2023-03-20T14:34:50.590Z,3.53
2023-03-20T14:36:28.974Z,3.70
2023-03-20T14:38:24.513Z,3.40
2023-03-20T14:40:04.736Z,3.40
2023-03-20T14:41:57.393Z,3.57
2023-03-20T14:43:49.734Z,4.10
2023-03-20T14:45:39.482Z,3.43
2023-03-20T14:47:23.149Z,3.40
2023-03-20T14:48:56.944Z,3.57
2023-03-20T14:50:35.064Z,3.80
2023-03-20T14:52:23.383Z,3.60
2023-03-20T14:53:57.774Z,3.70
2023-03-20T14:55:49.187Z,3.60
2023-03-20T14:57:35.751Z,4.30
2023-03-20T14:59:15.391Z,3.60
2023-03-20T15:00:50.720Z,3.63
2023-03-20T15:02:27.771Z,3.70
2023-03-20T15:04:06.665Z,3.53
2023-03-20T15:05:40.769Z,3.50
2023-03-20T15:07:16.925Z,3.60
2023-03-20T15:08:52.887Z,3.53
2023-03-20T15:10:26.452Z,3.53
2023-03-20T15:12:04.258Z,3.73
2023-03-20T15:13:39.009Z,3.93
2023-03-20T15:15:25.536Z,3.53
2023-03-20T15:16:59.668Z,4.00
2023-03-20T15:18:37.152Z,3.30
2023-03-20T15:20:17.144Z,3.50
2023-03-20T15:21:50.553Z,3.63
2023-03-20T15:23:23.260Z,3.70
2023-03-20T15:24:57.631Z,3.30
2023-03-20T15:26:32.901Z,3.50
2023-03-20T15:28:09.268Z,3.80
2023-03-20T15:29:46.833Z,3.70
2023-03-20T15:31:24.402Z,3.30
2023-03-20T15:32:57.213Z,3.30
2023-03-20T15:34:33.391Z,3.50
2023-03-20T15:36:11.283Z,3.50
2023-03-20T15:37:45.334Z,3.40
2023-03-20T15:39:22.143Z,3.33
2023-03-20T15:40:55.138Z,3.13
2023-03-20T15:42:27.928Z,3.23
2023-03-20T15:44:16.547Z,3.37
2023-03-20T15:45:50.649Z,2.93
2023-03-20T15:47:24.975Z,3.10
2023-03-20T15:49:00.158Z,3.10
2023-03-20T15:50:34.550Z,2.70
2023-03-20T15:52:14.031Z,2.97
2023-03-20T15:53:49.334Z,2.73
2023-03-20T15:55:25.416Z,3.10
2023-03-20T15:57:00.518Z,2.40
2023-03-20T15:58:33.484Z,1.90
2023-03-20T16:00:11.166Z,1.70
2023-03-20T16:01:45.907Z,1.80
2023-03-20T16:03:21.924Z,2.07
2023-03-20T16:04:56.260Z,1.77
2023-03-20T16:06:29.302Z,2.00
2023-03-20T16:08:14.420Z,3.40
2023-03-20T16:09:47.114Z,2.00
2023-03-20T16:11:21.678Z,1.97
2023-03-20T16:12:55.344Z,2.23
2023-03-20T16:14:32.091Z,2.10
2023-03-20T16:16:10.160Z,2.20
2023-03-20T16:17:43.033Z,2.20
2023-03-20T16:19:16.121Z,2.10
2023-03-20T16:20:53.321Z,2.20
2023-03-20T16:22:28.934Z,2.07
2023-03-20T16:24:06.334Z,2.20
2023-03-20T16:25:39.177Z,2.33
2023-03-20T16:27:14.615Z,2.50
2023-03-20T16:28:48.571Z,2.20
2023-03-20T16:30:25.283Z,2.00
2023-03-20T16:32:03.884Z,2.20
2023-03-20T16:33:37.616Z,2.10
2023-03-20T16:35:17.589Z,2.30
2023-03-20T16:36:53.821Z,2.07
2023-03-20T16:38:29.124Z,2.20
2023-03-20T16:40:22.234Z,2.37
2023-03-20T16:42:12.442Z,2.30
2023-03-20T16:43:50.021Z,2.50
2023-03-20T16:45:29.839Z,2.70
2023-03-20T16:47:20.123Z,2.77
2023-03-20T16:48:56.857Z,2.90
2023-03-20T16:50:37.170Z,2.73
2023-03-20T16:52:14.192Z,2.80
2023-03-20T16:53:49.118Z,2.30
2023-03-20T16:55:29.249Z,2.50
2023-03-20T16:57:03.895Z,2.20
2023-03-20T16:58:40.960Z,2.97
2023-03-20T17:00:29.275Z,3.30
2023-03-20T17:02:03.297Z,3.23
2023-03-20T17:03:37.963Z,3.00
2023-03-20T17:05:14.402Z,3.03
2023-03-20T17:06:49.554Z,3.00
2023-03-20T17:08:32.073Z,2.77
2023-03-20T17:10:18.517Z,2.80
2023-03-20T17:11:56.578Z,2.40
2023-03-20T17:13:29.277Z,2.53
2023-03-20T17:15:01.954Z,2.80
2023-03-20T17:16:36.547Z,3.10
2023-03-20T17:18:14.301Z,3.10
2023-03-20T17:19:47.117Z,3.10
2023-03-20T17:21:19.912Z,2.50
2023-03-20T17:22:52.761Z,3.00
2023-03-20T17:24:25.506Z,2.90
2023-03-20T17:25:58.212Z,3.07
2023-03-20T17:27:31.256Z,3.47
2023-03-20T17:29:04.417Z,3.20
2023-03-20T17:30:37.266Z,3.40
2023-03-20T17:32:11.882Z,3.33
2023-03-20T17:33:46.989Z,2.97
2023-03-20T17:35:19.920Z,3.07
2023-03-20T17:36:52.723Z,3.27
2023-03-20T17:38:25.573Z,3.30
2023-03-20T17:40:00.336Z,3.50
2023-03-20T17:41:33.077Z,2.73
2023-03-20T17:43:10.303Z,4.17
2023-03-20T17:44:42.990Z,5.00
2023-03-20T17:46:18.884Z,4.37
2023-03-20T17:47:52.588Z,3.30
2023-03-20T17:49:27.948Z,3.80
2023-03-20T17:51:00.849Z,3.60
2023-03-20T17:52:33.592Z,3.40
2023-03-20T17:54:06.559Z,3.37
2023-03-20T17:55:39.585Z,3.33
2023-03-20T17:57:21.068Z,3.20
2023-03-20T17:58:53.989Z,3.10
2023-03-20T18:00:27.112Z,3.00
2023-03-20T18:02:00.021Z,3.27
2023-03-20T18:03:32.892Z,3.10
2023-03-20T18:05:08.362Z,3.37
2023-03-20T18:06:41.109Z,3.00
2023-03-20T18:08:16.120Z,3.20
2023-03-20T18:09:49.487Z,3.07
2023-03-20T18:11:22.246Z,3.37
2023-03-20T18:12:54.972Z,2.90
2023-03-20T18:14:27.672Z,3.37
2023-03-20T18:16:00.502Z,3.23
2023-03-20T18:17:33.192Z,4.00
2023-03-20T18:19:06.086Z,3.53
2023-03-20T18:20:41.872Z,3.50
2023-03-20T18:22:14.576Z,3.60
2023-03-20T18:23:47.298Z,3.73
2023-03-20T18:25:20.388Z,3.43
2023-03-20T18:26:53.708Z,3.47
2023-03-20T18:28:26.387Z,3.53
2023-03-20T18:29:59.157Z,3.30
2023-03-20T18:31:31.924Z,3.63
2023-03-20T18:33:05.997Z,3.30
2023-03-20T18:34:40.534Z,3.30
2023-03-20T18:36:16.989Z,3.20
2023-03-20T18:37:49.725Z,3.53
2023-03-20T18:39:24.720Z,3.30
2023-03-20T18:40:57.635Z,3.00
2023-03-20T18:42:30.360Z,3.15
2023-03-20T18:44:03.070Z,3.20
2023-03-20T18:45:36.014Z,2.93
2023-03-20T18:47:10.381Z,3.20
2023-03-20T18:48:43.465Z,3.20
2023-03-20T18:50:24.064Z,3.10
2023-03-20T18:51:58.094Z,2.97
2023-03-20T18:53:31.226Z,3.20
2023-03-20T18:55:04.213Z,3.33
2023-03-20T18:56:37.768Z,3.03
2023-03-20T18:58:20.624Z,3.50
2023-03-20T18:59:53.335Z,3.00
2023-03-20T19:01:27.128Z,3.40
2023-03-20T19:02:59.889Z,3.20
2023-03-20T19:04:34.998Z,3.13
2023-03-20T19:06:12.983Z,2.90
2023-03-20T19:07:47.454Z,3.37
2023-03-20T19:09:20.286Z,3.30
2023-03-20T19:10:53.496Z,3.10
2023-03-20T19:12:26.208Z,3.17
2023-03-20T19:13:58.899Z,3.83
2023-03-20T19:15:35.302Z,3.20
2023-03-20T19:17:08.004Z,3.20
2023-03-20T19:18:40.829Z,3.27
2023-03-20T19:20:41.639Z,3.30
2023-03-20T19:22:28.446Z,3.43
2023-03-20T19:24:05.871Z,3.30
2023-03-20T19:25:39.347Z,3.43
2023-03-20T19:27:17.561Z,3.07
2023-03-20T19:28:50.958Z,3.43
2023-03-20T19:30:28.933Z,3.50
2023-03-20T19:32:01.638Z,3.40
2023-03-20T19:33:33.737Z,3.50
2023-03-20T19:37:00.315Z,2.97
2023-03-20T19:38:34.205Z,3.20
2023-03-20T19:40:21.849Z,2.80
2023-03-20T19:41:54.681Z,2.70
2023-03-20T19:43:29.058Z,3.33
2023-03-20T19:45:01.989Z,3.37
2023-03-20T19:46:42.459Z,3.30
2023-03-20T19:48:17.322Z,3.10
2023-03-20T19:49:50.146Z,3.47
2023-03-20T19:51:25.456Z,3.20
2023-03-20T19:52:59.120Z,3.40
2023-03-20T19:54:31.823Z,3.10
2023-03-20T19:56:06.472Z,3.33
2023-03-20T19:57:39.193Z,3.67
2023-03-20T19:59:13.953Z,3.47
2023-03-20T20:00:58.950Z,3.50
2023-03-20T20:02:32.071Z,4.00
2023-03-20T20:04:05.205Z,3.60
2023-03-20T20:05:39.322Z,4.00
2023-03-20T20:07:53.180Z,3.67
2023-03-20T20:09:05.145Z,3.93
2023-03-20T20:10:39.732Z,3.93
2023-03-20T20:12:13.767Z,3.73
2023-03-20T20:14:07.085Z,3.77
2023-03-20T20:15:39.532Z,4.13
2023-03-20T20:17:12.493Z,4.30
2023-03-20T20:18:45.235Z,3.90
2023-03-20T20:20:24.764Z,3.60
2023-03-20T20:23:50.493Z,3.73
2023-03-20T20:25:23.258Z,3.40
2023-03-20T20:27:15.343Z,3.33
2023-03-20T20:28:50.866Z,3.27
2023-03-20T20:30:23.564Z,3.37
2023-03-20T20:31:56.500Z,3.40
2023-03-20T20:33:29.403Z,3.23
2023-03-20T20:38:51.324Z,3.42
2023-03-20T20:40:26.188Z,3.40
2023-03-20T20:41:58.915Z,3.72
2023-03-20T20:44:06.687Z,3.70
2023-03-20T20:45:30.371Z,3.63
2023-03-20T20:47:04.307Z,3.60
2023-03-20T20:48:37.764Z,3.53
2023-03-20T20:50:11.813Z,3.75
2023-03-20T20:51:44.559Z,3.70
2023-03-20T20:53:17.259Z,3.67
2023-03-20T20:54:50.012Z,3.90
2023-03-20T20:56:22.706Z,4.27
2023-03-20T20:57:56.345Z,3.73
2023-03-20T20:59:29.561Z,3.20
2023-03-20T21:01:04.145Z,3.47
2023-03-20T21:02:39.194Z,3.80
2023-03-20T21:04:12.196Z,3.70
2023-03-20T21:05:44.936Z,3.83
2023-03-20T21:07:17.660Z,3.40
2023-03-20T21:08:50.420Z,3.40
2023-03-20T21:10:23.509Z,3.25
2023-03-20T21:11:55.265Z,3.40
2023-03-20T21:13:27.934Z,3.33
2023-03-20T21:15:00.928Z,3.50
2023-03-20T21:16:34.976Z,3.50
2023-03-20T21:18:07.673Z,3.90
2023-03-20T21:19:42.045Z,3.60
2023-03-20T21:21:15.336Z,3.57
2023-03-20T21:22:48.106Z,3.67